Time;durP1;ratioP1;P1;durP2;ratioP2;P2;SDS_P1;SDS_P2;PMS_P1;PMS_P2;Temp;Humidity;BMP_temperature;BMP_pressure;BME280_temperature;BME280_humidity;BME280_pressure;Samples;Min_cycle;Max_cycle;Signal;HPM_P1;HPM_P2
2022/03/24 00:01:36;;;;;;;11.50;8.93;;;14.20;66.20;;;;;;5012641;28;20666;-76
2022/03/24 00:04:02;;;;;;;10.30;8.48;;;14.20;66.30;;;;;;4988757;28;20501;-76
2022/03/24 00:06:27;;;;;;;10.35;8.55;;;14.20;66.30;;;;;;4994071;28;20025;-76
2022/03/24 00:08:53;;;;;;;9.40;7.88;;;14.10;66.30;;;;;;4992498;28;20096;-75
2022/03/24 00:11:20;;;;;;;10.15;7.47;;;14.10;66.30;;;;;;4996767;28;20034;-75
2022/03/24 00:13:48;;;;;;;10.50;8.00;;;14.10;66.30;;;;;;4990657;28;20140;-75
2022/03/24 00:16:15;;;;;;;11.35;8.23;;;14.00;66.30;;;;;;5001950;28;20030;-75
2022/03/24 00:18:41;;;;;;;11.98;8.55;;;14.00;66.30;;;;;;5009502;28;20033;-75
2022/03/24 00:21:08;;;;;;;10.90;8.65;;;13.90;66.30;;;;;;4993760;28;20123;-76
2022/03/24 00:23:34;;;;;;;10.40;8.50;;;13.90;66.20;;;;;;5003602;28;20052;-75
2022/03/24 00:26:00;;;;;;;12.23;8.43;;;13.90;66.30;;;;;;5005957;28;20363;-75
2022/03/24 00:28:26;;;;;;;11.38;8.60;;;13.80;66.20;;;;;;5007458;28;20112;-76
2022/03/24 00:30:52;;;;;;;9.95;8.27;;;13.80;66.30;;;;;;4979901;28;20037;-75
2022/03/24 00:33:18;;;;;;;10.32;8.27;;;13.70;66.30;;;;;;5030420;28;20045;-75
2022/03/24 00:35:45;;;;;;;9.95;8.23;;;13.70;66.30;;;;;;5011104;28;20385;-76
2022/03/24 00:38:11;;;;;;;10.35;8.63;;;13.60;66.20;;;;;;5007567;28;20109;-75
2022/03/24 00:40:39;;;;;;;11.15;8.45;;;13.60;66.20;;;;;;5010686;28;20121;-76
2022/03/24 00:43:05;;;;;;;11.02;8.98;;;13.60;66.20;;;;;;4992663;28;20432;-76
2022/03/24 00:45:30;;;;;;;11.68;8.68;;;13.50;66.20;;;;;;4994929;28;20303;-76
2022/03/24 00:47:56;;;;;;;9.40;7.72;;;13.50;66.30;;;;;;4995494;28;20053;-75
2022/03/24 00:50:22;;;;;;;10.80;8.57;;;13.50;66.40;;;;;;4979814;28;20057;-76
2022/03/24 00:52:48;;;;;;;11.60;8.43;;;13.40;66.30;;;;;;5002440;28;20120;-75
2022/03/24 00:55:16;;;;;;;11.32;8.65;;;13.40;66.50;;;;;;4995398;28;20555;-76
2022/03/24 00:57:43;;;;;;;11.23;8.63;;;13.30;66.40;;;;;;5005205;28;20108;-76
2022/03/24 01:00:16;;;;;;;11.73;8.95;;;13.30;66.40;;;;;;4996386;28;20025;-75
2022/03/24 01:02:48;;;;;;;10.95;8.38;;;13.30;66.40;;;;;;4994628;28;20034;-76
2022/03/24 01:05:17;;;;;;;10.70;8.48;;;13.20;66.30;;;;;;5001154;28;20627;-76
2022/03/24 01:07:44;;;;;;;10.25;7.70;;;13.10;66.20;;;;;;5012291;28;20364;-76
2022/03/24 01:10:11;;;;;;;12.15;8.65;;;13.10;66.30;;;;;;4995446;28;20029;-76
2022/03/24 01:12:39;;;;;;;10.85;8.10;;;13.10;66.40;;;;;;4999228;28;20045;-75
2022/03/24 01:15:10;;;;;;;10.23;8.63;;;13.10;66.40;;;;;;5003788;28;20037;-76
2022/03/24 01:17:36;;;;;;;10.27;8.23;;;13.00;66.30;;;;;;4995580;28;20033;-75
2022/03/24 01:20:04;;;;;;;10.80;8.23;;;13.00;66.30;;;;;;5017332;28;20037;-76
2022/03/24 01:22:30;;;;;;;10.50;8.70;;;12.90;66.30;;;;;;5007355;28;20033;-75
2022/03/24 01:24:56;;;;;;;10.35;8.30;;;12.90;66.40;;;;;;4992108;28;20088;-76
2022/03/24 01:27:27;;;;;;;10.27;7.95;;;12.80;66.40;;;;;;5018660;28;20026;-76
2022/03/24 01:29:57;;;;;;;11.05;7.95;;;12.80;66.50;;;;;;5008842;28;20026;-76
2022/03/24 01:32:26;;;;;;;11.25;8.25;;;12.80;66.50;;;;;;5002193;28;20068;-76
2022/03/24 01:34:52;;;;;;;10.68;8.07;;;12.70;66.60;;;;;;4993570;28;20030;-76
2022/03/24 01:37:22;;;;;;;10.75;7.18;;;12.70;66.60;;;;;;5002480;28;20550;-76
2022/03/24 01:39:49;;;;;;;9.77;7.63;;;12.60;66.60;;;;;;5001561;28;20118;-76
2022/03/24 01:42:16;;;;;;;10.18;7.38;;;12.60;66.50;;;;;;5035498;28;20108;-75
2022/03/24 01:44:46;;;;;;;11.15;8.55;;;12.60;66.60;;;;;;4996362;28;20466;-75
2022/03/24 01:47:13;;;;;;;8.82;7.03;;;12.50;66.50;;;;;;5022578;28;20041;-75
2022/03/24 01:49:41;;;;;;;10.30;7.55;;;12.50;66.60;;;;;;5002926;28;20021;-76
2022/03/24 01:52:13;;;;;;;9.18;7.20;;;12.40;66.60;;;;;;5000149;28;20490;-76
2022/03/24 01:54:42;;;;;;;9.05;7.15;;;12.40;66.70;;;;;;5013186;28;20086;-76
2022/03/24 01:57:11;;;;;;;10.00;7.65;;;12.40;66.70;;;;;;5032951;28;20029;-76
2022/03/24 01:59:37;;;;;;;10.13;7.85;;;12.30;66.70;;;;;;5019259;28;20109;-76
2022/03/24 02:02:04;;;;;;;10.20;8.15;;;12.30;66.70;;;;;;4985778;28;20482;-76
2022/03/24 02:04:35;;;;;;;9.90;8.00;;;12.30;66.90;;;;;;5033567;28;20033;-75
2022/03/24 02:07:06;;;;;;;10.90;7.70;;;12.20;66.80;;;;;;5018000;28;20025;-76
2022/03/24 02:09:36;;;;;;;10.35;7.85;;;12.20;66.70;;;;;;5004984;28;20095;-76
2022/03/24 02:12:10;;;;;;;11.77;7.32;;;12.10;66.80;;;;;;4999444;28;20029;-76
2022/03/24 02:14:38;;;;;;;8.75;7.03;;;12.10;67.30;;;;;;5008312;28;20099;-76
2022/03/24 02:17:05;;;;;;;9.73;7.38;;;12.10;66.80;;;;;;5010725;28;20021;-75
2022/03/24 02:19:31;;;;;;;9.52;7.10;;;12.10;66.80;;;;;;5014003;28;20474;-76
2022/03/24 02:22:10;;;;;;;10.43;7.80;;;12.00;66.80;;;;;;5009962;28;20060;-76
2022/03/24 02:24:37;;;;;;;9.82;7.20;;;12.00;66.80;;;;;;5020947;28;20025;-75
2022/03/24 02:27:03;;;;;;;8.80;6.88;;;12.00;67.50;;;;;;5024840;28;20474;-76
2022/03/24 02:29:29;;;;;;;9.43;7.05;;;11.90;66.70;;;;;;4998270;28;20034;-77
2022/03/24 02:31:55;;;;;;;9.90;7.85;;;11.90;66.70;;;;;;5033199;28;20447;-75
2022/03/24 02:34:38;;;;;;;10.15;7.95;;;11.80;66.50;;;;;;4997843;28;20062;-76
2022/03/24 02:37:11;;;;;;;9.88;7.85;;;11.80;66.50;;;;;;5015251;28;20021;-75
2022/03/24 02:39:39;;;;;;;8.85;6.85;;;11.70;66.50;;;;;;5035733;28;20053;-76
2022/03/24 02:42:06;;;;;;;9.60;7.53;;;11.70;66.40;;;;;;5001649;28;20579;-76
2022/03/24 02:44:33;;;;;;;8.77;7.07;;;11.70;66.50;;;;;;5001988;28;20433;-75
2022/03/24 02:47:06;;;;;;;10.18;6.95;;;11.70;66.50;;;;;;4999757;28;20107;-76
2022/03/24 02:49:33;;;;;;;8.98;6.88;;;11.60;66.40;;;;;;5024406;28;20033;-75
2022/03/24 02:52:00;;;;;;;9.68;7.55;;;11.60;66.30;;;;;;5021432;28;20037;-78
2022/03/24 02:54:28;;;;;;;9.52;7.38;;;11.50;66.30;;;;;;5027504;28;20029;-76
2022/03/24 02:56:54;;;;;;;9.00;7.03;;;11.50;66.30;;;;;;5013066;28;20037;-76
2022/03/24 02:59:20;;;;;;;10.63;7.53;;;11.50;66.30;;;;;;4976854;28;20108;-76
2022/03/24 03:02:00;;;;;;;9.27;6.72;;;11.40;66.10;;;;;;5003201;28;20037;-75
2022/03/24 03:04:28;;;;;;;10.35;6.60;;;11.40;66.20;;;;;;5031039;28;20064;-76
2022/03/24 03:06:54;;;;;;;9.93;7.43;;;11.40;66.10;;;;;;4997962;28;20033;-76
2022/03/24 03:09:21;;;;;;;9.65;7.43;;;11.30;66.10;;;;;;5005073;28;20442;-75
2022/03/24 03:11:48;;;;;;;8.88;7.20;;;11.30;66.10;;;;;;4994329;28;20038;-75
2022/03/24 03:14:16;;;;;;;9.80;7.30;;;11.30;66.20;;;;;;5012365;28;20029;-75
2022/03/24 03:16:44;;;;;;;9.70;7.30;;;11.20;66.10;;;;;;5012135;28;20501;-77
2022/03/24 03:19:14;;;;;;;9.27;7.25;;;11.20;66.10;;;;;;5008020;28;20104;-75
2022/03/24 03:21:41;;;;;;;8.88;6.95;;;11.20;66.10;;;;;;4994327;28;20034;-75
2022/03/24 03:24:08;;;;;;;9.75;7.38;;;11.20;66.10;;;;;;4997502;28;20533;-75
2022/03/24 03:26:35;;;;;;;9.00;7.03;;;11.10;66.10;;;;;;4996980;28;20044;-76
2022/03/24 03:29:00;;;;;;;9.85;7.20;;;11.10;66.10;;;;;;4994782;28;20031;-77
2022/03/24 03:31:28;;;;;;;9.75;7.30;;;11.10;66.10;;;;;;5013234;28;20494;-76
2022/03/24 03:33:55;;;;;;;9.35;7.18;;;11.00;66.00;;;;;;5005152;28;20029;-77
2022/03/24 03:36:22;;;;;;;9.57;7.28;;;11.00;66.00;;;;;;5011422;28;20076;-77
2022/03/24 03:38:48;;;;;;;10.95;7.35;;;11.00;66.10;;;;;;5003968;28;20496;-77
2022/03/24 03:41:15;;;;;;;9.23;7.03;;;10.90;66.00;;;;;;5030009;28;20033;-77
2022/03/24 03:43:42;;;;;;;10.15;7.43;;;10.90;66.00;;;;;;4981284;28;20053;-77
2022/03/24 03:46:08;;;;;;;9.52;7.35;;;10.90;66.00;;;;;;5006988;28;20061;-76
2022/03/24 03:48:35;;;;;;;10.32;7.72;;;10.80;66.00;;;;;;5008759;28;20140;-77
2022/03/24 03:51:02;;;;;;;9.95;7.50;;;10.80;66.00;;;;;;5005417;28;20040;-77
2022/03/24 03:53:28;;;;;;;9.70;7.22;;;10.80;66.00;;;;;;4975989;28;20033;-78
2022/03/24 03:55:54;;;;;;;9.90;7.35;;;10.80;66.00;;;;;;4992887;28;20447;-77
2022/03/24 03:58:20;;;;;;;9.38;7.40;;;10.70;66.00;;;;;;5027912;28;20026;-77
2022/03/24 04:00:58;;;;;;;8.75;6.82;;;10.70;66.00;;;;;;4979002;28;20028;-77
2022/03/24 04:03:25;;;;;;;8.63;6.70;;;10.60;66.00;;;;;;5010179;28;20056;-78
2022/03/24 04:05:53;;;;;;;9.20;6.93;;;10.60;66.00;;;;;;5007781;28;20025;-77
2022/03/24 04:08:20;;;;;;;9.52;7.38;;;10.60;66.00;;;;;;5006616;28;20025;-76
2022/03/24 04:10:46;;;;;;;9.63;7.35;;;10.50;65.90;;;;;;4996842;28;20036;-77
2022/03/24 04:13:12;;;;;;;8.57;6.57;;;10.50;66.00;;;;;;5005709;28;20071;-76
2022/03/24 04:15:38;;;;;;;9.95;7.47;;;10.50;66.00;;;;;;5008506;28;20042;-77
2022/03/24 04:18:06;;;;;;;8.95;6.25;;;10.40;66.00;;;;;;5028404;28;20033;-77
2022/03/24 04:20:32;;;;;;;9.52;7.15;;;10.40;65.90;;;;;;5012044;28;20029;-77
2022/03/24 04:23:03;;;;;;;9.18;6.65;;;10.40;66.00;;;;;;5005855;28;20968;-77
2022/03/24 04:25:29;;;;;;;9.57;7.15;;;10.40;66.00;;;;;;5012206;28;20503;-76
2022/03/24 04:27:56;;;;;;;8.98;6.60;;;10.40;66.00;;;;;;4991068;28;20133;-76
2022/03/24 04:30:22;;;;;;;9.23;7.65;;;10.30;66.00;;;;;;5012452;28;20029;-77
2022/03/24 04:32:49;;;;;;;9.52;6.90;;;10.30;66.00;;;;;;4996063;28;20470;-77
2022/03/24 04:35:16;;;;;;;9.57;6.95;;;10.30;66.10;;;;;;5000583;28;20161;-77
2022/03/24 04:37:43;;;;;;;9.30;7.43;;;10.30;66.10;;;;;;5029834;28;20029;-77
2022/03/24 04:40:11;;;;;;;9.73;7.22;;;10.20;66.00;;;;;;4994705;28;20026;-77
2022/03/24 04:42:38;;;;;;;10.13;7.43;;;10.20;66.10;;;;;;5011407;28;20033;-76
2022/03/24 04:45:06;;;;;;;9.38;7.15;;;10.20;66.10;;;;;;5010612;28;20099;-77
2022/03/24 04:47:32;;;;;;;9.35;7.28;;;10.10;66.10;;;;;;4998637;28;20058;-76
2022/03/24 04:49:58;;;;;;;10.38;7.55;;;10.10;66.10;;;;;;5003517;28;20038;-76
2022/03/24 04:52:24;;;;;;;9.45;7.05;;;10.00;66.10;;;;;;4994611;28;20036;-76
2022/03/24 04:54:50;;;;;;;9.75;6.78;;;10.10;66.20;;;;;;5009919;28;20025;-77
2022/03/24 04:57:15;;;;;;;8.90;7.00;;;10.00;66.10;;;;;;5029079;28;20026;-76
2022/03/24 04:59:42;;;;;;;9.30;6.80;;;10.00;66.10;;;;;;4976438;28;20026;-77
2022/03/24 05:02:12;;;;;;;10.98;7.63;;;9.90;66.10;;;;;;5009496;28;20103;-76
2022/03/24 05:04:38;;;;;;;10.82;6.93;;;10.00;66.20;;;;;;4996366;28;20041;-76
2022/03/24 05:07:04;;;;;;;9.05;7.03;;;9.90;66.20;;;;;;4995319;28;20355;-76
2022/03/24 05:09:31;;;;;;;9.38;6.90;;;9.90;66.20;;;;;;4995533;28;20112;-77
2022/03/24 05:11:57;;;;;;;9.13;7.07;;;9.90;66.20;;;;;;5008755;28;20516;-77
2022/03/24 05:14:22;;;;;;;9.55;7.65;;;9.90;66.20;;;;;;5009993;28;20480;-76
2022/03/24 05:16:48;;;;;;;11.43;7.57;;;9.80;66.20;;;;;;5027795;28;20033;-76
2022/03/24 05:19:14;;;;;;;10.63;6.90;;;9.80;66.20;;;;;;4991817;28;20390;-77
2022/03/24 05:21:40;;;;;;;9.90;7.57;;;9.70;66.20;;;;;;4995867;28;20046;-77
2022/03/24 05:24:06;;;;;;;10.25;7.53;;;9.70;66.20;;;;;;5003321;28;20152;-77
2022/03/24 05:26:32;;;;;;;9.75;7.22;;;9.70;66.20;;;;;;4994805;28;20036;-77
2022/03/24 05:28:57;;;;;;;9.63;7.18;;;9.70;66.20;;;;;;4994117;28;20037;-77
2022/03/24 05:31:23;;;;;;;10.73;7.50;;;9.60;66.20;;;;;;4992883;28;20049;-77
2022/03/24 05:33:50;;;;;;;9.57;7.00;;;9.60;66.30;;;;;;4991714;28;20018;-77
2022/03/24 05:36:16;;;;;;;10.02;7.40;;;9.60;66.30;;;;;;5028777;28;20025;-77
2022/03/24 05:38:42;;;;;;;9.45;6.88;;;9.50;66.30;;;;;;5018209;28;20032;-77
2022/03/24 05:41:13;;;;;;;9.90;7.55;;;9.50;66.30;;;;;;5016917;28;20062;-77
2022/03/24 05:43:39;;;;;;;10.65;7.57;;;9.50;66.30;;;;;;5000965;28;20545;-77
2022/03/24 05:46:05;;;;;;;9.52;7.57;;;9.50;66.30;;;;;;4998347;28;20133;-77
2022/03/24 05:48:33;;;;;;;9.32;6.75;;;9.40;66.30;;;;;;5004849;28;20040;-77
2022/03/24 05:51:22;;;;;;;9.32;7.35;;;9.40;66.30;;;;;;4968895;28;20050;-77
2022/03/24 05:53:47;;;;;;;10.95;7.57;;;9.40;66.30;;;;;;4994730;28;20091;-77
2022/03/24 05:56:13;;;;;;;9.38;6.95;;;9.40;66.40;;;;;;4990721;28;20453;-77
2022/03/24 05:58:39;;;;;;;10.75;7.85;;;9.30;66.40;;;;;;5007358;28;20044;-77
2022/03/24 06:01:05;;;;;;;8.82;6.75;;;9.30;66.40;;;;;;4993254;28;20077;-77
2022/03/24 06:03:35;;;;;;;11.10;7.35;;;9.30;66.40;;;;;;5003403;28;20034;-77
2022/03/24 06:06:06;;;;;;;9.30;7.28;;;9.30;66.40;;;;;;4993527;28;20112;-76
2022/03/24 06:08:35;;;;;;;10.10;7.13;;;9.30;66.50;;;;;;4987571;28;20125;-77
2022/03/24 06:11:01;;;;;;;10.35;7.35;;;9.20;66.40;;;;;;4992418;28;20022;-77
2022/03/24 06:13:27;;;;;;;9.20;7.00;;;9.20;66.50;;;;;;5006141;28;20046;-76
2022/03/24 06:15:54;;;;;;;9.93;7.55;;;9.20;66.50;;;;;;4991930;28;20356;-76
2022/03/24 06:18:20;;;;;;;10.73;7.65;;;9.20;66.60;;;;;;5010350;28;20030;-76
2022/03/24 06:20:46;;;;;;;10.38;7.53;;;9.10;66.50;;;;;;5006357;28;20053;-75
2022/03/24 06:23:12;;;;;;;10.35;7.38;;;9.10;66.60;;;;;;5027864;28;20029;-75
2022/03/24 06:25:38;;;;;;;10.00;7.63;;;9.10;66.60;;;;;;5007360;28;20565;-76
2022/03/24 06:28:05;;;;;;;10.95;7.65;;;9.10;66.70;;;;;;4997995;28;20094;-75
2022/03/24 06:30:31;;;;;;;10.93;7.32;;;9.10;66.70;;;;;;5014518;28;20034;-76
2022/03/24 06:32:57;;;;;;;10.35;7.18;;;9.10;66.70;;;;;;4997442;28;20036;-76
2022/03/24 06:35:24;;;;;;;9.50;7.35;;;9.00;66.70;;;;;;5014879;28;20033;-75
2022/03/24 06:37:51;;;;;;;10.48;7.47;;;9.00;66.80;;;;;;5032625;28;20101;-75
2022/03/24 06:40:16;;;;;;;10.20;7.50;;;9.00;66.80;;;;;;4999630;28;20044;-77
2022/03/24 06:42:42;;;;;;;10.27;7.63;;;9.00;66.80;;;;;;4998684;28;20105;-75
2022/03/24 06:45:10;;;;;;;11.35;7.75;;;9.00;66.90;;;;;;5013039;28;20030;-76
2022/03/24 06:47:37;;;;;;;10.73;7.53;;;9.00;66.90;;;;;;5004046;28;20042;-76
2022/03/24 06:50:09;;;;;;;10.50;7.25;;;9.00;67.00;;;;;;5010127;28;20029;-76
2022/03/24 06:52:35;;;;;;;9.98;7.85;;;9.00;67.00;;;;;;5014086;28;20033;-76
2022/03/24 06:55:00;;;;;;;10.32;7.63;;;8.90;67.00;;;;;;5008769;28;20525;-75
2022/03/24 06:57:26;;;;;;;10.50;7.22;;;8.90;67.00;;;;;;5011718;28;20037;-76
2022/03/24 06:59:52;;;;;;;9.98;7.65;;;8.90;67.00;;;;;;4994945;28;20030;-75
2022/03/24 07:02:17;;;;;;;10.02;7.47;;;8.90;67.10;;;;;;4991196;28;20042;-78
2022/03/24 07:04:43;;;;;;;10.77;7.72;;;8.90;67.10;;;;;;4991388;28;20474;-77
2022/03/24 07:07:09;;;;;;;10.20;7.78;;;8.90;67.20;;;;;;4992942;28;20030;-76
2022/03/24 07:09:37;;;;;;;9.90;7.70;;;8.90;67.20;;;;;;5004716;28;20116;-76
2022/03/24 07:12:03;;;;;;;9.05;6.93;;;8.90;67.30;;;;;;4983049;28;20034;-78
2022/03/24 07:14:29;;;;;;;11.25;7.65;;;8.90;67.30;;;;;;5011065;28;20029;-78
2022/03/24 07:16:55;;;;;;;10.18;7.85;;;8.90;67.40;;;;;;4998062;28;20064;-77
2022/03/24 07:19:21;;;;;;;10.35;7.75;;;8.90;67.40;;;;;;5009123;28;20034;-76
2022/03/24 07:21:46;;;;;;;11.18;7.13;;;8.90;67.40;;;;;;5032068;28;20373;-76
2022/03/24 07:24:13;;;;;;;9.82;7.55;;;8.90;67.40;;;;;;5014477;28;20121;-76
2022/03/24 07:26:39;;;;;;;10.45;7.82;;;8.90;67.40;;;;;;4998788;28;20014;-76
2022/03/24 07:29:05;;;;;;;10.73;8.07;;;8.80;67.40;;;;;;4998325;28;20060;-76
2022/03/24 07:31:31;;;;;;;11.25;8.18;;;8.90;67.50;;;;;;5015042;28;20045;-78
2022/03/24 07:33:58;;;;;;;10.85;7.68;;;8.80;67.50;;;;;;5014692;28;20045;-77
2022/03/24 07:36:25;;;;;;;11.70;8.48;;;8.80;67.50;;;;;;5019513;28;20026;-76
2022/03/24 07:38:56;;;;;;;10.55;7.85;;;8.90;67.60;;;;;;5027830;28;20033;-76
2022/03/24 07:41:22;;;;;;;10.57;7.90;;;8.90;68.30;;;;;;5014149;28;20120;-76
2022/03/24 07:43:48;;;;;;;11.65;8.90;;;8.90;67.70;;;;;;5014388;28;20374;-78
2022/03/24 07:46:14;;;;;;;10.85;8.77;;;8.90;67.70;;;;;;5014137;28;20117;-76
2022/03/24 07:48:40;;;;;;;10.40;7.90;;;8.90;67.70;;;;;;5014143;28;20545;-76
2022/03/24 07:51:07;;;;;;;12.02;8.35;;;8.90;67.70;;;;;;5031816;28;20090;-76
2022/03/24 07:53:38;;;;;;;11.38;8.52;;;8.90;67.70;;;;;;4997936;28;20033;-76
2022/03/24 07:56:04;;;;;;;12.73;9.20;;;8.90;67.70;;;;;;5031764;28;20516;-77
2022/03/24 07:58:31;;;;;;;12.55;9.32;;;8.90;67.70;;;;;;5005617;28;20385;-77
2022/03/24 08:00:59;;;;;;;12.80;9.88;;;9.00;67.80;;;;;;5014027;28;20029;-76
2022/03/24 08:03:25;;;;;;;14.15;10.13;;;8.90;67.70;;;;;;5014348;28;20104;-76
2022/03/24 08:05:52;;;;;;;12.32;9.65;;;8.90;67.70;;;;;;5006123;28;20075;-77
2022/03/24 08:08:18;;;;;;;13.07;9.88;;;9.00;67.80;;;;;;4997450;28;20056;-76
2022/03/24 08:10:46;;;;;;;13.00;9.48;;;9.00;67.80;;;;;;4997525;28;20589;-77
2022/03/24 08:13:14;;;;;;;13.57;9.93;;;9.00;67.80;;;;;;4997013;28;20029;-76
2022/03/24 08:15:41;;;;;;;14.55;10.35;;;9.00;67.80;;;;;;4997232;28;20030;-76
2022/03/24 08:18:08;;;;;;;12.00;9.35;;;9.00;67.80;;;;;;4997337;28;20487;-77
2022/03/24 08:20:35;;;;;;;13.35;10.02;;;9.00;67.70;;;;;;5031237;28;20471;-76
2022/03/24 08:23:02;;;;;;;14.00;10.40;;;9.10;67.70;;;;;;5028575;28;20116;-77
2022/03/24 08:25:29;;;;;;;15.35;10.50;;;9.10;67.80;;;;;;5026928;28;20041;-77
2022/03/24 08:27:55;;;;;;;13.68;10.65;;;9.10;68.30;;;;;;5011802;28;20026;-77
2022/03/24 08:30:22;;;;;;;14.55;11.23;;;9.10;67.70;;;;;;5002451;28;20036;-76
2022/03/24 08:32:48;;;;;;;15.23;11.68;;;9.20;67.70;;;;;;5010966;28;20049;-77
2022/03/24 08:35:14;;;;;;;14.57;10.40;;;9.20;67.70;;;;;;4992677;28;20063;-79
2022/03/24 08:37:40;;;;;;;14.15;10.27;;;9.20;67.70;;;;;;5013380;28;20043;-79
2022/03/24 08:40:06;;;;;;;13.55;10.38;;;9.20;67.60;;;;;;5013177;28;20037;-76
2022/03/24 08:42:37;;;;;;;14.18;10.50;;;9.20;67.50;;;;;;5006985;28;20120;-75
2022/03/24 08:45:04;;;;;;;12.90;10.25;;;9.30;67.60;;;;;;5019430;28;20339;-76
2022/03/24 08:47:31;;;;;;;13.63;10.55;;;9.30;67.50;;;;;;5016481;28;20148;-77
2022/03/24 08:49:56;;;;;;;14.50;11.45;;;9.30;67.40;;;;;;5012627;28;20025;-76
2022/03/24 08:52:22;;;;;;;14.82;11.23;;;9.40;67.40;;;;;;5030125;28;20565;-76
2022/03/24 08:54:49;;;;;;;14.52;11.32;;;9.40;67.40;;;;;;4995822;28;20037;-76
2022/03/24 08:57:15;;;;;;;14.35;11.25;;;9.40;67.30;;;;;;5006309;28;20025;-77
2022/03/24 08:59:41;;;;;;;15.57;11.18;;;9.50;67.40;;;;;;5022817;28;20037;-76
2022/03/24 09:02:07;;;;;;;13.43;10.60;;;9.50;67.30;;;;;;4995914;28;20025;-77
2022/03/24 09:04:32;;;;;;;14.27;11.05;;;9.60;67.30;;;;;;4987459;28;20029;-77
2022/03/24 09:06:58;;;;;;;14.48;11.10;;;9.60;67.30;;;;;;5013508;28;20036;-76
2022/03/24 09:09:24;;;;;;;14.30;10.52;;;9.70;67.20;;;;;;4980027;28;20071;-76
2022/03/24 09:11:50;;;;;;;13.77;10.88;;;9.80;67.30;;;;;;5004304;28;20128;-76
2022/03/24 09:14:16;;;;;;;14.75;11.07;;;9.80;67.20;;;;;;5009475;28;20041;-76
2022/03/24 09:16:43;;;;;;;14.77;11.35;;;9.90;67.20;;;;;;4979797;28;20505;-77
2022/03/24 09:19:08;;;;;;;14.40;10.95;;;9.90;67.20;;;;;;5012140;28;20535;-76
2022/03/24 09:21:34;;;;;;;13.88;10.45;;;10.00;67.20;;;;;;5011471;28;20069;-76
2022/03/24 09:24:00;;;;;;;14.18;11.00;;;10.10;67.30;;;;;;4995963;28;20438;-76
2022/03/24 09:26:25;;;;;;;14.23;10.60;;;10.20;67.30;;;;;;5011375;28;20030;-76
2022/03/24 09:28:52;;;;;;;15.98;11.77;;;10.20;67.20;;;;;;5005422;28;20082;-77
2022/03/24 09:31:21;;;;;;;14.35;10.63;;;10.30;67.30;;;;;;4996145;28;20506;-76
2022/03/24 09:33:47;;;;;;;13.45;10.68;;;10.40;67.40;;;;;;4995759;28;20148;-76
2022/03/24 09:36:14;;;;;;;14.07;11.40;;;10.50;67.40;;;;;;5012007;28;20120;-77
2022/03/24 09:38:39;;;;;;;14.38;10.77;;;10.60;67.50;;;;;;4995983;28;20454;-76
2022/03/24 09:41:06;;;;;;;13.13;10.65;;;10.70;67.60;;;;;;4993453;28;20136;-76
2022/03/24 09:43:34;;;;;;;15.25;11.55;;;10.80;67.70;;;;;;5009829;28;20030;-76
2022/03/24 09:46:01;;;;;;;15.45;11.75;;;10.90;67.80;;;;;;5027873;28;20121;-76
2022/03/24 09:48:27;;;;;;;14.25;11.25;;;11.00;67.90;;;;;;5003340;28;20394;-76
2022/03/24 09:50:53;;;;;;;16.00;11.80;;;11.10;68.60;;;;;;5010808;28;20049;-76
2022/03/24 09:53:19;;;;;;;16.15;12.27;;;11.20;68.10;;;;;;4991000;28;20544;-76
2022/03/24 09:55:47;;;;;;;16.38;12.55;;;11.30;68.20;;;;;;4994759;28;20080;-76
2022/03/24 09:58:13;;;;;;;14.23;11.13;;;11.40;68.20;;;;;;5013370;28;20033;-75
2022/03/24 10:00:39;;;;;;;15.35;11.30;;;11.50;68.30;;;;;;5015923;28;20131;-75
2022/03/24 10:03:10;;;;;;;15.18;12.40;;;11.60;68.40;;;;;;5009455;28;20029;-75
2022/03/24 10:05:36;;;;;;;15.70;11.85;;;11.70;68.60;;;;;;4997104;28;20138;-76
2022/03/24 10:08:06;;;;;;;15.57;11.85;;;11.90;68.70;;;;;;5011743;28;20034;-77
2022/03/24 10:10:34;;;;;;;14.80;12.00;;;12.00;68.90;;;;;;4994075;28;20064;-76
2022/03/24 10:13:01;;;;;;;14.98;11.60;;;12.10;68.90;;;;;;5020327;28;20037;-75
2022/03/24 10:15:28;;;;;;;14.57;12.23;;;12.20;68.90;;;;;;5007357;28;20033;-74
2022/03/24 10:17:57;;;;;;;15.02;12.23;;;12.30;69.00;;;;;;5011877;28;20026;-75
2022/03/24 10:20:27;;;;;;;15.20;11.77;;;12.40;69.80;;;;;;5008101;28;20057;-75
2022/03/24 10:23:06;;;;;;;15.27;12.05;;;12.60;69.20;;;;;;4998796;28;20029;-75
2022/03/24 10:25:34;;;;;;;14.38;11.50;;;12.70;69.50;;;;;;4990366;28;20041;-76
2022/03/24 10:28:12;;;;;;;13.90;11.20;;;12.80;69.40;;;;;;5014135;28;20024;-75
2022/03/24 10:30:45;;;;;;;13.32;11.38;;;12.90;69.70;;;;;;4994012;28;20030;-75
2022/03/24 10:33:31;;;;;;;15.82;11.57;;;13.10;69.70;;;;;;4998492;28;20145;-77
2022/03/24 10:36:18;;;;;;;15.10;11.63;;;13.20;70.00;;;;;;4995358;28;20475;-75
2022/03/24 10:38:46;;;;;;;15.32;11.65;;;13.30;70.00;;;;;;5009427;28;20026;-75
2022/03/24 10:41:19;;;;;;;14.05;11.23;;;13.50;70.00;;;;;;4998435;28;20033;-75
2022/03/24 10:43:47;;;;;;;13.82;11.20;;;13.60;70.20;;;;;;4995564;28;20062;-75
2022/03/24 10:46:24;;;;;;;14.05;10.98;;;13.70;70.20;;;;;;4998023;28;20050;-76
2022/03/24 10:48:52;;;;;;;13.48;11.27;;;13.80;70.30;;;;;;5014637;28;20465;-75
2022/03/24 10:51:35;;;;;;;16.35;12.43;;;14.00;70.30;;;;;;5014422;28;20033;-75
2022/03/24 10:54:48;;;;;;;14.48;11.73;;;14.10;70.50;;;;;;4998532;28;20068;-76
2022/03/24 10:57:16;;;;;;;13.25;11.02;;;14.20;70.50;;;;;;4971526;28;20133;-75
2022/03/24 10:59:58;;;;;;;14.10;11.52;;;14.30;70.30;;;;;;5005804;28;20055;-75
2022/03/24 11:02:28;;;;;;;13.65;11.10;;;14.50;70.50;;;;;;5014368;28;20128;-75
2022/03/24 11:04:58;;;;;;;14.05;11.18;;;14.60;70.50;;;;;;5002963;28;20026;-76
2022/03/24 11:07:25;;;;;;;12.90;10.98;;;14.70;70.60;;;;;;5010307;28;20038;-75
2022/03/24 11:09:51;;;;;;;13.07;10.65;;;14.80;70.60;;;;;;5031296;28;20533;-76
2022/03/24 11:12:29;;;;;;;13.20;11.55;;;14.90;70.70;;;;;;5032161;28;20172;-76
2022/03/24 11:15:00;;;;;;;12.77;10.48;;;15.10;70.80;;;;;;5014335;28;20076;-75
2022/03/24 11:17:28;;;;;;;13.82;11.52;;;15.20;70.70;;;;;;5007648;28;20077;-76
2022/03/24 11:20:23;;;;;;;15.07;11.52;;;15.30;70.70;;;;;;5004352;28;20022;-75
2022/03/24 11:22:52;;;;;;;13.63;11.02;;;15.40;70.90;;;;;;4998006;28;20099;-75
2022/03/24 11:25:20;;;;;;;15.40;11.43;;;15.60;70.80;;;;;;5032022;28;20022;-75
2022/03/24 11:27:46;;;;;;;12.68;11.25;;;15.70;70.80;;;;;;5013967;28;20076;-75
2022/03/24 11:30:14;;;;;;;13.77;11.63;;;15.80;70.90;;;;;;5031774;28;20045;-75
2022/03/24 11:32:45;;;;;;;14.65;10.95;;;15.90;71.00;;;;;;5013806;28;20152;-75
2022/03/24 11:35:12;;;;;;;13.07;10.23;;;16.00;71.10;;;;;;4997497;28;20025;-75
2022/03/24 11:37:39;;;;;;;13.38;10.30;;;16.10;71.00;;;;;;4994154;28;20038;-76
2022/03/24 11:40:10;;;;;;;12.77;10.60;;;16.20;71.00;;;;;;4990788;28;20032;-77
2022/03/24 11:42:55;;;;;;;13.10;10.27;;;16.30;71.10;;;;;;5001850;28;20505;-74
2022/03/24 11:45:48;;;;;;;12.70;10.38;;;16.40;71.20;;;;;;5003749;28;20022;-76
2022/03/24 11:48:15;;;;;;;13.15;10.30;;;16.60;71.20;;;;;;5005467;28;20150;-76
2022/03/24 11:50:45;;;;;;;13.45;10.43;;;16.70;71.20;;;;;;4996822;28;20065;-76
2022/03/24 11:53:24;;;;;;;14.45;10.57;;;16.70;71.20;;;;;;5013472;28;20124;-75
2022/03/24 11:55:59;;;;;;;11.38;9.32;;;16.80;71.30;;;;;;4993846;28;20105;-75
2022/03/24 11:58:26;;;;;;;13.05;10.43;;;16.90;71.40;;;;;;5028301;28;20026;-75
2022/03/24 12:00:52;;;;;;;12.23;10.23;;;17.00;71.30;;;;;;5013490;28;20069;-75
2022/03/24 12:03:46;;;;;;;12.95;10.77;;;17.10;72.00;;;;;;4964697;28;20045;-75
2022/03/24 12:06:14;;;;;;;11.88;10.00;;;17.10;72.20;;;;;;5007106;28;20032;-75
2022/03/24 12:08:44;;;;;;;12.27;10.55;;;17.20;71.40;;;;;;5013074;28;20034;-76
2022/03/24 12:11:32;;;;;;;12.63;10.52;;;17.30;71.40;;;;;;5013386;28;20334;-75
2022/03/24 12:14:08;;;;;;;11.88;9.52;;;17.40;71.70;;;;;;5030528;28;20041;-76
2022/03/24 12:16:42;;;;;;;11.90;9.85;;;17.40;71.50;;;;;;5012874;28;20029;-76
2022/03/24 12:19:47;;;;;;;11.75;9.95;;;17.50;71.50;;;;;;5023066;28;20025;-76
2022/03/24 12:22:29;;;;;;;11.77;9.75;;;17.60;71.40;;;;;;5021741;28;20041;-76
2022/03/24 12:25:01;;;;;;;11.65;9.30;;;17.70;71.40;;;;;;5012624;28;20033;-76
2022/03/24 12:27:31;;;;;;;11.65;10.40;;;17.70;71.30;;;;;;5013092;28;20025;-75
2022/03/24 12:30:11;;;;;;;13.32;10.65;;;17.80;71.40;;;;;;5012458;28;20025;-75
2022/03/24 12:32:37;;;;;;;12.73;10.50;;;17.80;71.40;;;;;;5004921;28;20038;-74
2022/03/24 12:35:04;;;;;;;11.52;10.32;;;17.90;71.20;;;;;;5012987;28;20601;-74
2022/03/24 12:37:34;;;;;;;12.88;10.35;;;18.00;71.20;;;;;;5012696;28;20025;-74
2022/03/24 12:40:05;;;;;;;12.90;10.23;;;18.00;71.30;;;;;;5012802;28;20053;-74
2022/03/24 12:42:40;;;;;;;11.35;10.10;;;18.10;71.20;;;;;;5004335;28;20381;-74
2022/03/24 12:45:07;;;;;;;;;;;18.10;71.30;;;;;;5012655;28;20470;-74
2022/03/24 12:47:47;;;;;;;10.93;8.85;;;18.20;71.70;;;;;;5020205;28;20532;-75